createdAt,value
2023-11-02T00:04:02.180Z,99376.50
2023-11-02T00:09:17.049Z,99367.50
2023-11-02T00:14:19.938Z,99362.97
2023-11-02T00:19:31.991Z,99350.28
2023-11-02T00:24:38.533Z,99334.50
2023-11-02T00:29:40.576Z,99333.28
2023-11-02T00:34:42.557Z,99327.53
2023-11-02T00:39:44.602Z,99324.25
2023-11-02T00:44:50.168Z,99320.38
2023-11-02T00:49:58.862Z,99321.63
2023-11-02T00:55:03.339Z,99318.00
2023-11-02T01:00:09.339Z,99304.44
2023-11-02T01:05:24.135Z,99310.44
2023-11-02T01:10:26.989Z,99303.69
2023-11-02T01:15:56.229Z,99304.94
2023-11-02T01:21:06.066Z,99304.31
2023-11-02T01:26:49.782Z,99291.41
2023-11-02T01:31:53.817Z,99294.28
2023-11-02T01:36:58.992Z,99279.72
2023-11-02T01:42:15.980Z,99279.56
2023-11-02T01:47:29.941Z,99272.19
2023-11-02T01:52:48.288Z,99250.63
2023-11-02T01:58:07.621Z,99230.75
2023-11-02T02:03:28.611Z,99227.69
2023-11-02T02:09:00.146Z,99220.72
2023-11-02T02:14:37.087Z,99197.31
2023-11-02T02:19:51.189Z,99214.81
2023-11-02T02:25:01.124Z,99198.63
2023-11-02T02:30:29.964Z,99172.34
2023-11-02T02:35:38.622Z,99168.88
2023-11-02T02:40:42.848Z,99169.72
2023-11-02T02:45:47.208Z,99173.63
2023-11-02T02:50:51.787Z,99168.50
2023-11-02T02:55:57.300Z,99158.22
2023-11-02T03:01:01.289Z,99140.41
2023-11-02T03:06:05.892Z,99120.09
2023-11-02T03:11:15.892Z,99101.47
2023-11-02T03:16:23.502Z,99094.13
2023-11-02T03:21:27.220Z,99074.03
2023-11-02T03:26:59.595Z,99054.91
2023-11-02T03:32:19.736Z,99037.03
2023-11-02T03:37:48.015Z,99020.00
2023-11-02T03:43:12.620Z,99007.09
2023-11-02T03:48:16.763Z,98990.94
2023-11-02T03:53:57.062Z,98948.91
2023-11-02T03:59:19.069Z,98930.44
2023-11-02T04:04:38.896Z,98912.38
2023-11-02T04:09:51.243Z,98895.78
2023-11-02T04:14:56.679Z,98898.22
2023-11-02T04:20:00.159Z,98883.03
2023-11-02T04:25:02.015Z,98882.44
2023-11-02T04:30:06.823Z,98876.22
2023-11-02T04:35:11.780Z,98843.34
2023-11-02T04:40:18.547Z,98826.28
2023-11-02T04:45:22.442Z,98797.31
2023-11-02T04:50:28.338Z,98764.41
2023-11-02T04:55:30.167Z,98740.41
2023-11-02T05:00:32.267Z,98715.78
2023-11-02T05:05:36.777Z,98705.19
2023-11-02T05:10:41.033Z,98678.97
2023-11-02T05:15:55.638Z,98670.81
2023-11-02T05:21:01.060Z,98673.72
2023-11-02T05:26:06.104Z,98662.03
2023-11-02T05:31:08.006Z,98654.72
2023-11-02T05:36:10.300Z,98658.38
2023-11-02T05:41:12.505Z,98652.09
2023-11-02T05:46:14.542Z,98645.06
2023-11-02T05:51:19.109Z,98635.22
2023-11-02T05:56:21.233Z,98623.19
2023-11-02T06:01:24.838Z,98596.59
2023-11-02T06:06:26.876Z,98553.31
2023-11-02T06:11:28.747Z,98524.50
2023-11-02T06:16:30.611Z,98532.69
2023-11-02T06:21:32.580Z,98512.06
2023-11-02T06:26:36.629Z,98488.88
2023-11-02T06:31:39.033Z,98467.41
2023-11-02T06:36:46.824Z,98473.31
2023-11-02T06:41:49.063Z,98476.94
2023-11-02T06:46:50.929Z,98480.50
2023-11-02T06:51:53.017Z,98456.34
2023-11-02T06:56:54.972Z,98466.31
2023-11-02T07:01:56.941Z,98435.63
2023-11-02T07:07:02.241Z,98429.84
2023-11-02T07:12:07.010Z,98403.44
2023-11-02T07:17:15.670Z,98393.09
2023-11-02T07:22:19.704Z,98369.41
2023-11-02T07:27:21.596Z,98387.59
2023-11-02T07:32:29.562Z,98351.59
2023-11-02T07:37:31.413Z,98328.91
2023-11-02T07:42:33.350Z,98315.09
2023-11-02T07:47:35.271Z,98313.78
2023-11-02T07:52:38.860Z,98299.69
2023-11-02T07:57:44.353Z,98282.84
2023-11-02T08:02:46.287Z,98316.78
2023-11-02T08:07:52.632Z,98323.97
2023-11-02T08:12:57.169Z,98314.03
2023-11-02T08:18:01.484Z,98293.88
2023-11-02T08:23:03.355Z,98284.06
2023-11-02T08:28:05.169Z,98261.00
2023-11-02T08:33:07.702Z,98251.59
2023-11-02T08:38:12.746Z,98234.53
2023-11-02T08:43:14.869Z,98224.97
2023-11-02T08:48:18.990Z,98203.19
2023-11-02T08:53:20.940Z,98181.88
2023-11-02T08:58:22.845Z,98168.34
2023-11-02T09:03:26.918Z,98158.53
2023-11-02T09:08:28.725Z,98157.47
2023-11-02T09:13:31.737Z,98152.44
2023-11-02T09:18:33.868Z,98146.78
2023-11-02T09:23:38.778Z,98122.91
2023-11-02T09:28:40.820Z,98114.31
2023-11-02T09:33:42.683Z,98126.38
2023-11-02T09:38:44.799Z,98098.25
2023-11-02T09:43:47.066Z,98073.19
2023-11-02T09:48:48.951Z,98056.47
2023-11-02T09:53:51.312Z,98046.22
2023-11-02T09:58:58.122Z,98035.16
2023-11-02T10:03:59.975Z,97990.47
2023-11-02T10:09:03.579Z,97994.50
2023-11-02T10:14:08.091Z,98000.19
2023-11-02T10:19:10.378Z,97981.38
2023-11-02T10:24:12.792Z,97989.91
2023-11-02T10:29:15.023Z,97961.41
2023-11-02T10:34:17.060Z,97948.09
2023-11-02T10:39:20.177Z,97951.06
2023-11-02T10:44:29.390Z,97957.66
2023-11-02T10:49:36.783Z,97946.47
2023-11-02T10:54:55.104Z,97942.19
2023-11-02T11:00:01.193Z,97943.59
2023-11-02T11:05:11.040Z,97935.56
2023-11-02T11:10:14.436Z,97921.09
2023-11-02T11:15:20.736Z,97941.50
2023-11-02T11:20:27.187Z,97911.56
2023-11-02T11:25:29.129Z,97912.91
2023-11-02T11:30:35.584Z,97918.94
2023-11-02T11:35:37.449Z,97912.25
2023-11-02T11:40:44.955Z,97907.41
2023-11-02T11:45:47.132Z,97876.38
2023-11-02T11:50:54.090Z,97884.22
2023-11-02T11:55:57.485Z,97883.06
2023-11-02T12:01:02.200Z,97878.22
2023-11-02T12:06:04.931Z,97876.16
2023-11-02T12:11:13.330Z,97859.44
2023-11-02T12:16:15.223Z,97860.47
2023-11-02T12:21:19.290Z,97853.97
2023-11-02T12:26:29.984Z,97857.13
2023-11-02T12:31:33.684Z,97842.66
2023-11-02T12:36:44.052Z,97833.56
2023-11-02T12:41:47.489Z,97833.84
2023-11-02T12:47:04.818Z,97810.97
2023-11-02T12:52:09.482Z,97812.19
2023-11-02T12:57:14.517Z,97806.28
2023-11-02T13:02:28.445Z,97799.59
2023-11-02T13:07:34.172Z,97786.16
2023-11-02T13:12:41.143Z,97786.16
2023-11-02T13:17:48.498Z,97792.91
2023-11-02T13:22:51.933Z,97778.94
2023-11-02T13:27:55.639Z,97776.88
2023-11-02T13:33:00.180Z,97766.91
2023-11-02T13:38:02.347Z,97750.22
2023-11-02T13:43:07.381Z,97741.81
2023-11-02T13:48:10.293Z,97712.00
2023-11-02T13:53:15.465Z,97727.69
2023-11-02T13:58:17.318Z,97721.78
2023-11-02T14:03:22.030Z,97694.13
2023-11-02T14:08:25.160Z,97693.63
2023-11-02T14:13:27.061Z,97697.22
2023-11-02T14:18:32.905Z,97688.72
2023-11-02T14:23:35.066Z,97693.28
2023-11-02T14:28:37.269Z,97661.75
2023-11-02T14:33:39.837Z,97652.63
2023-11-02T14:38:42.456Z,97659.72
2023-11-02T14:43:49.257Z,97664.94
2023-11-02T14:48:51.227Z,97670.09
2023-11-02T14:53:53.119Z,97675.06
2023-11-02T14:58:54.945Z,97643.63
2023-11-02T15:04:01.714Z,97640.47
2023-11-02T15:09:09.785Z,97651.03
2023-11-02T15:14:12.757Z,97640.22
2023-11-02T15:19:14.673Z,97659.88
2023-11-02T15:24:17.197Z,97658.16
2023-11-02T15:29:19.320Z,97649.19
2023-11-02T15:34:24.385Z,97626.69
2023-11-02T15:39:30.997Z,97629.72
2023-11-02T15:44:33.271Z,97632.72
2023-11-02T15:49:40.011Z,97642.69
2023-11-02T15:54:41.973Z,97640.19
2023-11-02T15:59:46.294Z,97646.47
2023-11-02T16:04:50.982Z,97656.13
2023-11-02T16:09:53.088Z,97646.50
2023-11-02T16:14:55.022Z,97672.56
2023-11-02T16:19:59.646Z,97653.28
2023-11-02T16:25:01.720Z,97675.78
2023-11-02T16:30:05.533Z,97672.56
2023-11-02T16:35:18.185Z,97675.47
2023-11-02T16:40:30.248Z,97681.66
2023-11-02T16:45:35.850Z,97676.81
2023-11-02T16:50:38.391Z,97687.81
2023-11-02T16:55:43.236Z,97689.69
2023-11-02T17:00:45.237Z,97699.06
2023-11-02T17:05:47.428Z,97696.38
2023-11-02T17:10:49.755Z,97707.34
2023-11-02T17:15:55.121Z,97696.91
2023-11-02T17:20:59.173Z,97694.50
2023-11-02T17:26:01.016Z,97703.34
2023-11-02T17:31:06.494Z,97717.03
2023-11-02T17:36:08.757Z,97703.09
2023-11-02T17:41:17.629Z,97706.28
2023-11-02T17:46:19.950Z,97711.38
2023-11-02T17:51:26.132Z,97716.97
2023-11-02T17:56:29.744Z,97737.06
2023-11-02T18:01:35.413Z,97731.97
2023-11-02T18:06:37.644Z,97749.16
2023-11-02T18:11:39.662Z,97730.69
2023-11-02T18:16:44.209Z,97757.81
2023-11-02T18:21:46.140Z,97765.81
2023-11-02T18:26:48.359Z,97779.50
2023-11-02T18:31:50.232Z,97782.16
2023-11-02T18:36:54.698Z,97777.31
2023-11-02T18:41:56.609Z,97772.50
2023-11-02T18:47:02.081Z,97786.19
2023-11-02T18:52:09.323Z,97793.97
2023-11-02T18:57:11.837Z,97788.88
2023-11-02T19:02:15.956Z,97807.66
2023-11-02T19:07:21.070Z,97816.22
2023-11-02T19:12:23.501Z,97804.69
2023-11-02T19:17:25.582Z,97786.72
2023-11-02T19:22:30.233Z,97787.25
2023-11-02T19:27:32.568Z,97784.56
2023-11-02T19:32:34.826Z,97777.63
2023-11-02T19:37:37.473Z,97776.28
2023-11-02T19:42:39.973Z,97782.72
2023-11-02T19:47:41.965Z,97779.72
2023-11-02T19:52:44.037Z,97776.78
2023-11-02T19:57:48.146Z,97788.56
2023-11-02T20:02:50.252Z,97783.19
2023-11-02T20:07:57.041Z,97790.66
2023-11-02T20:13:01.281Z,97792.75
2023-11-02T20:18:05.069Z,97800.75
2023-11-02T20:23:08.900Z,97797.75
2023-11-02T20:28:10.779Z,97790.44
2023-11-02T20:33:14.468Z,97797.38
2023-11-02T20:38:18.810Z,97783.69
2023-11-02T20:43:20.756Z,97768.66
2023-11-02T20:48:23.065Z,97762.22
2023-11-02T20:53:25.021Z,97767.25
2023-11-02T20:58:27.317Z,97754.75
2023-11-02T21:03:29.730Z,97770.81
2023-11-02T21:08:34.191Z,97768.72
2023-11-02T21:13:36.575Z,97781.56
2023-11-02T21:18:38.521Z,97790.38
2023-11-02T21:23:41.780Z,97780.50
2023-11-02T21:28:45.909Z,97793.13
2023-11-02T21:33:55.119Z,97788.03
2023-11-02T21:38:57.306Z,97784.31
2023-11-02T21:44:01.236Z,97782.72
2023-11-02T21:49:03.465Z,97785.91
2023-11-02T21:54:05.624Z,97777.06
2023-11-02T21:59:12.132Z,97793.38
2023-11-02T22:04:14.570Z,97785.09
2023-11-02T22:09:18.854Z,97798.16
2023-11-02T22:14:20.775Z,97787.47
2023-11-02T22:19:22.867Z,97791.72
2023-11-02T22:24:24.796Z,97795.25
2023-11-02T22:29:26.804Z,97780.78
2023-11-02T22:34:28.915Z,97776.53
2023-11-02T22:39:30.982Z,97776.78
2023-11-02T22:44:35.507Z,97783.22
2023-11-02T22:49:37.328Z,97763.69
2023-11-02T22:54:39.712Z,97767.94
2023-11-02T22:59:42.695Z,97759.91
2023-11-02T23:04:45.777Z,97754.81
2023-11-02T23:09:47.764Z,97766.91
2023-11-02T23:14:51.793Z,97759.38
2023-11-02T23:19:56.323Z,97760.16
2023-11-02T23:24:58.865Z,97771.69
2023-11-02T23:30:00.860Z,97769.28
2023-11-02T23:35:03.839Z,97780.03
2023-11-02T23:40:09.201Z,97765.03
2023-11-02T23:45:13.770Z,97770.69
2023-11-02T23:50:16.209Z,97778.41
2023-11-02T23:55:18.158Z,97775.00
